createdAt,value
2022-10-26T00:00:01.563Z,99.90
2022-10-26T00:02:29.079Z,99.91
2022-10-26T00:04:56.585Z,99.58
2022-10-26T00:07:24.033Z,99.30
2022-10-26T00:09:51.459Z,99.17
2022-10-26T00:12:18.907Z,99.03
2022-10-26T00:14:47.681Z,98.80
2022-10-26T00:17:15.104Z,98.69
2022-10-26T00:19:42.573Z,98.91
2022-10-26T00:22:10.008Z,99.18
2022-10-26T00:24:37.438Z,98.96
2022-10-26T00:27:05.562Z,98.90
2022-10-26T00:29:33.050Z,98.96
2022-10-26T00:32:01.839Z,99.00
2022-10-26T00:34:29.249Z,99.06
2022-10-26T00:36:56.682Z,99.33
2022-10-26T00:39:24.343Z,99.57
2022-10-26T00:41:51.766Z,99.71
2022-10-26T00:45:01.980Z,99.89
2022-10-26T00:47:43.997Z,99.48
2022-10-26T00:50:15.224Z,99.27
2022-10-26T00:52:43.265Z,99.24
2022-10-26T00:55:11.110Z,99.46
2022-10-26T00:57:40.368Z,99.59
2022-10-26T01:00:09.485Z,99.11
2022-10-26T01:02:38.639Z,98.51
2022-10-26T01:05:07.790Z,98.71
2022-10-26T01:07:35.629Z,98.93
2022-10-26T01:10:03.110Z,99.16
2022-10-26T01:12:30.557Z,99.22
2022-10-26T01:14:58.041Z,99.08
2022-10-26T01:17:51.544Z,98.79
2022-10-26T01:20:31.692Z,98.67
2022-10-26T01:23:04.980Z,98.89
2022-10-26T01:26:16.302Z,98.75
2022-10-26T01:29:07.498Z,98.81
2022-10-26T01:31:43.482Z,98.83
2022-10-26T01:34:16.971Z,98.66
2022-10-26T01:36:51.477Z,98.97
2022-10-26T01:39:24.340Z,98.60
2022-10-26T01:41:53.747Z,98.84
2022-10-26T01:44:25.966Z,99.09
2022-10-26T01:46:57.839Z,98.92
2022-10-26T01:49:29.231Z,98.79
2022-10-26T01:51:56.631Z,98.77
2022-10-26T01:54:24.130Z,98.94
2022-10-26T01:56:54.847Z,99.30
2022-10-26T01:59:38.624Z,99.57
2022-10-26T02:03:01.221Z,99.66
2022-10-26T02:06:00.042Z,99.80
2022-10-26T02:08:40.494Z,99.71
2022-10-26T02:11:18.402Z,99.77
2022-10-26T02:13:50.472Z,100.00
2022-10-26T02:16:24.419Z,100.00
2022-10-26T02:19:03.112Z,100.00
2022-10-26T02:21:36.895Z,100.00
2022-10-26T02:26:42.690Z,100.00
2022-10-26T02:29:14.937Z,100.00
2022-10-26T02:31:43.644Z,100.00
2022-10-26T02:34:15.979Z,100.00
2022-10-26T02:36:45.911Z,100.00
2022-10-26T02:39:17.302Z,99.87
2022-10-26T02:41:46.726Z,99.69
2022-10-26T02:44:17.935Z,99.64
2022-10-26T02:46:45.980Z,99.59
2022-10-26T02:49:14.857Z,99.11
2022-10-26T02:54:28.060Z,98.88
2022-10-26T02:56:59.930Z,98.88
2022-10-26T02:59:32.330Z,98.65
2022-10-26T03:02:01.037Z,99.02
2022-10-26T03:04:31.143Z,98.80
2022-10-26T03:06:59.173Z,98.74
2022-10-26T03:09:27.102Z,98.60
2022-10-26T03:11:54.609Z,98.29
2022-10-26T03:14:22.036Z,98.52
2022-10-26T03:16:49.439Z,98.65
2022-10-26T03:19:16.866Z,98.55
2022-10-26T03:21:45.610Z,98.35
2022-10-26T03:24:13.047Z,98.37
2022-10-26T03:26:40.459Z,98.41
2022-10-26T03:29:08.862Z,98.30
2022-10-26T03:31:36.373Z,98.86
2022-10-26T03:34:03.867Z,99.15
2022-10-26T03:36:31.282Z,99.00
2022-10-26T03:39:00.253Z,98.90
2022-10-26T03:41:27.767Z,99.22
2022-10-26T03:43:55.312Z,99.61
2022-10-26T03:46:22.735Z,99.67
2022-10-26T03:48:50.155Z,99.69
2022-10-26T03:51:17.617Z,99.52
2022-10-26T03:53:45.040Z,99.22
2022-10-26T03:56:13.803Z,99.05
2022-10-26T03:58:41.253Z,99.16
2022-10-26T04:01:08.744Z,98.88
2022-10-26T04:03:36.221Z,98.32
2022-10-26T04:06:04.804Z,97.78
2022-10-26T04:08:32.292Z,97.34
2022-10-26T04:11:02.377Z,97.58
2022-10-26T04:13:33.779Z,97.50
2022-10-26T04:16:01.330Z,98.00
2022-10-26T04:18:28.773Z,97.78
2022-10-26T04:20:56.209Z,97.77
2022-10-26T04:25:55.974Z,97.75
2022-10-26T04:28:23.447Z,97.53
2022-10-26T04:30:52.190Z,98.08
2022-10-26T04:33:19.610Z,98.45
2022-10-26T04:35:48.052Z,99.19
2022-10-26T04:38:15.501Z,99.23
2022-10-26T04:40:42.928Z,98.96
2022-10-26T04:43:10.346Z,98.16
2022-10-26T04:45:37.755Z,97.97
2022-10-26T04:48:08.452Z,97.63
2022-10-26T04:50:36.388Z,97.76
2022-10-26T04:53:04.019Z,97.89
2022-10-26T04:55:31.533Z,98.12
2022-10-26T04:58:01.229Z,98.05
2022-10-26T05:00:30.166Z,98.17
2022-10-26T05:03:00.409Z,97.96
2022-10-26T05:05:29.331Z,98.21
2022-10-26T05:07:57.773Z,97.70
2022-10-26T05:10:25.744Z,97.91
2022-10-26T05:12:53.427Z,98.06
2022-10-26T05:15:21.376Z,98.18
2022-10-26T05:17:49.248Z,98.06
2022-10-26T05:20:16.925Z,97.77
2022-10-26T05:22:53.539Z,98.19
2022-10-26T05:25:20.971Z,97.97
2022-10-26T05:27:48.388Z,97.80
2022-10-26T05:30:15.913Z,98.24
2022-10-26T05:32:43.297Z,98.68
2022-10-26T05:35:10.695Z,99.04
2022-10-26T05:37:38.092Z,98.97
2022-10-26T05:40:08.361Z,98.82
2022-10-26T05:42:35.745Z,98.43
2022-10-26T05:45:03.164Z,98.18
2022-10-26T05:47:30.603Z,97.91
2022-10-26T05:49:58.013Z,97.25
2022-10-26T05:52:25.461Z,96.90
2022-10-26T05:54:52.854Z,96.51
2022-10-26T05:57:22.223Z,96.11
2022-10-26T05:59:50.238Z,96.02
2022-10-26T06:02:30.348Z,95.95
2022-10-26T06:05:03.583Z,95.74
2022-10-26T06:07:31.611Z,95.40
2022-10-26T06:09:59.691Z,95.05
2022-10-26T06:12:29.140Z,94.85
2022-10-26T06:14:57.423Z,95.08
2022-10-26T06:17:39.856Z,94.92
2022-10-26T06:20:22.114Z,95.06
2022-10-26T06:23:01.773Z,94.80
2022-10-26T06:25:37.154Z,94.72
2022-10-26T06:28:17.700Z,94.81
2022-10-26T06:30:45.182Z,95.08
2022-10-26T06:33:28.789Z,94.70
2022-10-26T06:36:07.539Z,94.46
2022-10-26T06:38:37.758Z,94.11
2022-10-26T06:41:06.334Z,94.04
2022-10-26T06:43:36.650Z,94.37
2022-10-26T06:46:15.305Z,94.63
2022-10-26T06:48:51.001Z,94.89
2022-10-26T06:51:19.030Z,95.17
2022-10-26T06:53:56.544Z,95.25
2022-10-26T06:56:24.667Z,95.26
2022-10-26T06:58:55.448Z,94.83
2022-10-26T07:01:22.944Z,94.70
2022-10-26T07:03:50.466Z,94.62
2022-10-26T07:08:50.939Z,94.94
2022-10-26T07:11:18.358Z,95.10
2022-10-26T07:13:45.772Z,95.42
2022-10-26T07:16:14.536Z,95.03
2022-10-26T07:18:41.961Z,94.74
2022-10-26T07:21:10.345Z,95.00
2022-10-26T07:23:37.827Z,95.03
2022-10-26T07:26:05.358Z,95.08
2022-10-26T07:28:32.800Z,95.24
2022-10-26T07:31:00.231Z,94.99
2022-10-26T07:33:29.003Z,95.02
2022-10-26T07:35:56.398Z,94.43
2022-10-26T07:38:23.898Z,94.71
2022-10-26T07:40:54.133Z,94.67
2022-10-26T07:43:21.544Z,94.48
2022-10-26T07:45:51.449Z,94.06
2022-10-26T07:48:18.877Z,93.38
2022-10-26T07:50:47.685Z,93.71
2022-10-26T07:53:15.069Z,93.29
2022-10-26T07:55:42.483Z,93.18
2022-10-26T07:58:09.959Z,92.92
2022-10-26T08:00:37.430Z,93.26
2022-10-26T08:03:05.066Z,93.28
2022-10-26T08:08:06.546Z,92.85
2022-10-26T08:10:34.495Z,93.07
2022-10-26T08:13:01.913Z,92.32
2022-10-26T08:15:29.319Z,92.33
2022-10-26T08:17:56.747Z,93.05
2022-10-26T08:20:24.139Z,93.28
2022-10-26T08:22:52.734Z,92.60
2022-10-26T08:25:21.770Z,91.96
2022-10-26T08:27:49.266Z,91.47
2022-10-26T08:30:16.918Z,91.05
2022-10-26T08:32:44.959Z,91.07
2022-10-26T08:35:12.627Z,91.02
2022-10-26T08:37:40.052Z,91.02
2022-10-26T08:40:08.654Z,90.73
2022-10-26T08:42:43.752Z,91.02
2022-10-26T08:45:29.585Z,90.17
2022-10-26T08:48:04.202Z,89.80
2022-10-26T08:50:37.104Z,90.55
2022-10-26T08:53:13.479Z,89.75
2022-10-26T08:55:45.319Z,89.14
2022-10-26T08:58:17.346Z,89.65
2022-10-26T09:00:48.105Z,89.51
2022-10-26T09:03:17.058Z,89.21
2022-10-26T09:05:59.697Z,88.00
2022-10-26T09:08:36.705Z,88.09
2022-10-26T09:11:14.258Z,87.75
2022-10-26T09:13:56.307Z,87.74
2022-10-26T09:16:33.863Z,88.57
2022-10-26T09:19:18.486Z,86.98
2022-10-26T09:21:52.489Z,86.93
2022-10-26T09:24:27.166Z,86.02
2022-10-26T09:26:56.268Z,85.47
2022-10-26T09:29:30.301Z,85.15
2022-10-26T09:32:03.212Z,84.32
2022-10-26T09:34:35.968Z,82.08
2022-10-26T09:37:15.257Z,82.36
2022-10-26T09:39:50.533Z,81.78
2022-10-26T09:42:22.781Z,81.14
2022-10-26T09:44:55.946Z,80.94
2022-10-26T09:47:32.501Z,81.90
2022-10-26T09:50:06.615Z,79.92
2022-10-26T09:52:34.130Z,81.34
2022-10-26T09:55:01.595Z,80.90
2022-10-26T09:57:29.152Z,81.00
2022-10-26T09:59:58.575Z,79.88
2022-10-26T10:02:36.821Z,81.04
2022-10-26T10:05:27.577Z,80.43
2022-10-26T10:08:19.917Z,80.81
2022-10-26T10:11:09.424Z,80.22
2022-10-26T10:13:39.006Z,79.42
2022-10-26T10:16:12.901Z,79.58
2022-10-26T10:18:42.134Z,78.00
2022-10-26T10:21:11.014Z,77.97
2022-10-26T10:23:49.078Z,78.39
2022-10-26T10:26:16.549Z,77.29
2022-10-26T10:28:44.503Z,77.14
2022-10-26T10:31:22.518Z,78.29
2022-10-26T10:33:50.302Z,77.82
2022-10-26T10:36:21.229Z,76.42
2022-10-26T10:38:50.707Z,76.80
2022-10-26T10:41:23.695Z,76.32
2022-10-26T10:43:54.814Z,75.98
2022-10-26T10:46:27.705Z,76.71
2022-10-26T10:49:03.009Z,76.21
2022-10-26T10:51:36.780Z,75.61
2022-10-26T10:54:06.424Z,76.53
2022-10-26T10:56:38.610Z,77.25
2022-10-26T10:59:43.220Z,76.46
2022-10-26T11:02:28.413Z,75.42
2022-10-26T11:05:20.859Z,76.27
2022-10-26T11:07:55.943Z,76.29
2022-10-26T11:10:27.057Z,75.16
2022-10-26T11:12:58.946Z,74.36
2022-10-26T11:15:30.923Z,74.57
2022-10-26T11:18:07.544Z,72.80
2022-10-26T11:20:40.516Z,72.43
2022-10-26T11:23:13.212Z,72.84
2022-10-26T11:25:48.513Z,72.39
2022-10-26T11:28:20.065Z,74.42
2022-10-26T11:30:52.925Z,73.09
2022-10-26T11:33:27.876Z,72.05
2022-10-26T11:36:00.641Z,73.35
2022-10-26T11:38:46.239Z,72.42
2022-10-26T11:41:26.197Z,73.80
2022-10-26T11:44:02.465Z,72.69
2022-10-26T11:46:36.468Z,72.74
2022-10-26T11:49:12.208Z,73.27
2022-10-26T11:51:42.700Z,72.39
2022-10-26T11:54:13.848Z,72.63
2022-10-26T11:56:45.171Z,71.70
2022-10-26T11:59:19.958Z,71.81
2022-10-26T12:01:49.831Z,71.97
2022-10-26T12:04:22.078Z,72.12
2022-10-26T12:06:52.494Z,72.08
2022-10-26T12:09:24.443Z,71.41
2022-10-26T12:11:59.570Z,72.64
2022-10-26T12:14:33.325Z,71.61
2022-10-26T12:17:08.019Z,72.42
2022-10-26T12:19:44.237Z,72.69
2022-10-26T12:22:14.208Z,71.43
2022-10-26T12:24:45.501Z,71.47
2022-10-26T12:27:31.724Z,71.29
2022-10-26T12:30:27.872Z,72.35
2022-10-26T12:32:56.476Z,71.92
2022-10-26T12:35:36.783Z,71.88
2022-10-26T12:38:49.340Z,72.31
2022-10-26T12:41:23.546Z,72.00
2022-10-26T12:43:51.509Z,72.69
2022-10-26T12:46:44.955Z,72.30
2022-10-26T12:49:54.308Z,71.18
2022-10-26T12:52:53.995Z,71.33
2022-10-26T12:55:48.768Z,70.23
2022-10-26T12:58:43.329Z,71.25
2022-10-26T13:01:48.309Z,70.60
2022-10-26T13:04:40.325Z,69.75
2022-10-26T13:07:20.290Z,70.45
2022-10-26T13:09:56.804Z,69.53
2022-10-26T13:12:24.833Z,68.90
2022-10-26T13:15:03.252Z,68.15
2022-10-26T13:20:08.075Z,69.04
2022-10-26T13:22:46.676Z,68.73
2022-10-26T13:25:24.505Z,68.18
2022-10-26T13:28:00.746Z,66.04
2022-10-26T13:30:47.719Z,66.93
2022-10-26T13:33:23.228Z,66.90
2022-10-26T13:35:55.334Z,66.81
2022-10-26T13:38:29.727Z,67.69
2022-10-26T13:41:07.159Z,68.51
2022-10-26T13:43:37.182Z,67.19
2022-10-26T13:46:05.400Z,67.31
2022-10-26T13:48:38.976Z,66.91
2022-10-26T13:51:17.566Z,65.63
2022-10-26T13:53:51.390Z,66.00
2022-10-26T13:56:26.325Z,64.76
2022-10-26T13:59:00.041Z,63.62
2022-10-26T14:01:28.499Z,63.55
2022-10-26T14:03:57.107Z,63.58
2022-10-26T14:06:29.176Z,63.16
2022-10-26T14:08:59.722Z,63.54
2022-10-26T14:11:35.071Z,63.24
2022-10-26T14:14:04.045Z,62.19
2022-10-26T14:16:34.899Z,61.64
2022-10-26T14:19:02.421Z,60.45
2022-10-26T14:21:30.648Z,61.11
2022-10-26T14:23:59.818Z,60.80
2022-10-26T14:26:31.064Z,60.70
2022-10-26T14:29:00.573Z,60.71
2022-10-26T14:31:30.140Z,60.45
2022-10-26T14:33:59.606Z,60.97
2022-10-26T14:36:33.728Z,59.39
2022-10-26T14:39:06.863Z,58.82
2022-10-26T14:41:37.204Z,59.01
2022-10-26T14:44:05.104Z,57.85
2022-10-26T14:46:36.154Z,57.80
2022-10-26T14:49:04.419Z,57.84
2022-10-26T14:51:36.306Z,58.99
2022-10-26T14:54:05.147Z,61.02
2022-10-26T14:56:41.721Z,60.62
2022-10-26T14:59:14.073Z,60.38
2022-10-26T15:01:50.668Z,61.02
2022-10-26T15:04:29.994Z,61.50
2022-10-26T15:07:02.885Z,62.30
2022-10-26T15:09:38.928Z,62.23
2022-10-26T15:12:09.408Z,62.06
2022-10-26T15:14:37.200Z,62.41
2022-10-26T15:17:04.738Z,62.03
2022-10-26T15:19:32.485Z,62.13
2022-10-26T15:22:00.193Z,62.04
2022-10-26T15:24:34.556Z,62.64
2022-10-26T15:27:15.772Z,62.52
2022-10-26T15:29:45.491Z,62.12
2022-10-26T15:32:36.929Z,63.77
2022-10-26T15:35:29.953Z,65.05
2022-10-26T15:37:58.712Z,65.41
2022-10-26T15:40:28.614Z,67.20
2022-10-26T15:43:00.404Z,67.40
2022-10-26T15:45:29.887Z,68.53
2022-10-26T15:48:00.040Z,68.29
2022-10-26T15:50:29.624Z,69.43
2022-10-26T15:53:01.328Z,69.30
2022-10-26T15:55:29.746Z,70.37
2022-10-26T15:57:58.606Z,70.90
2022-10-26T16:00:26.045Z,71.71
2022-10-26T16:02:53.473Z,72.24
2022-10-26T16:05:20.972Z,72.92
2022-10-26T16:07:49.348Z,73.19
2022-10-26T16:10:21.459Z,73.99
2022-10-26T16:12:50.074Z,73.82
2022-10-26T16:15:20.898Z,74.04
2022-10-26T16:17:49.598Z,74.64
2022-10-26T16:20:19.287Z,74.99
2022-10-26T16:22:48.470Z,75.89
2022-10-26T16:25:18.263Z,76.15
2022-10-26T16:27:46.178Z,76.51
2022-10-26T16:30:15.091Z,76.88
2022-10-26T16:32:44.380Z,77.62
2022-10-26T16:35:12.657Z,77.86
2022-10-26T16:37:40.447Z,78.13
2022-10-26T16:40:09.698Z,78.92
2022-10-26T16:42:37.196Z,79.11
2022-10-26T16:45:05.406Z,79.75
2022-10-26T16:47:36.823Z,79.60
2022-10-26T16:50:06.105Z,79.77
2022-10-26T16:52:35.176Z,80.29
2022-10-26T16:55:02.776Z,80.11
2022-10-26T16:57:30.548Z,80.61
2022-10-26T16:59:58.354Z,80.94
2022-10-26T17:02:25.892Z,81.64
2022-10-26T17:04:53.367Z,81.91
2022-10-26T17:07:22.092Z,82.15
2022-10-26T17:09:49.499Z,82.61
2022-10-26T17:12:17.037Z,83.20
2022-10-26T17:14:44.540Z,84.28
2022-10-26T17:17:12.020Z,84.71
2022-10-26T17:19:39.464Z,84.75
2022-10-26T17:22:08.744Z,85.44
2022-10-26T17:24:37.642Z,85.50
2022-10-26T17:27:05.127Z,85.27
2022-10-26T17:29:32.555Z,85.37
2022-10-26T17:31:59.992Z,86.00
2022-10-26T17:34:27.424Z,86.43
2022-10-26T17:36:54.861Z,86.39
2022-10-26T17:39:22.269Z,86.33
2022-10-26T17:41:50.999Z,86.85
2022-10-26T17:44:18.408Z,87.11
2022-10-26T17:46:46.216Z,87.01
2022-10-26T17:49:13.592Z,87.17
2022-10-26T17:51:41.015Z,87.46
2022-10-26T17:54:08.709Z,87.72
2022-10-26T17:56:36.259Z,87.31
2022-10-26T17:59:10.115Z,87.41
2022-10-26T18:01:37.604Z,88.23
2022-10-26T18:04:05.301Z,88.09
2022-10-26T18:06:32.793Z,88.47
2022-10-26T18:09:00.351Z,88.03
2022-10-26T18:11:28.298Z,88.51
2022-10-26T18:13:56.946Z,89.20
2022-10-26T18:16:27.475Z,89.04
2022-10-26T18:19:00.080Z,89.49
2022-10-26T18:21:29.058Z,89.61
2022-10-26T18:23:56.616Z,89.61
2022-10-26T18:26:26.558Z,89.93
2022-10-26T18:28:54.137Z,89.91
2022-10-26T18:31:23.261Z,89.96
2022-10-26T18:33:55.855Z,89.69
2022-10-26T18:36:23.408Z,89.91
2022-10-26T18:38:51.036Z,91.64
2022-10-26T18:41:20.674Z,91.97
2022-10-26T18:43:50.198Z,92.17
2022-10-26T18:46:21.543Z,92.14
2022-10-26T18:48:49.244Z,92.84
2022-10-26T18:51:19.331Z,92.97
2022-10-26T18:53:47.530Z,92.90
2022-10-26T18:56:17.399Z,92.59
2022-10-26T18:58:46.734Z,92.99
2022-10-26T19:01:16.454Z,93.02
2022-10-26T19:03:44.761Z,92.93
2022-10-26T19:06:13.479Z,92.89
2022-10-26T19:08:42.805Z,92.73
2022-10-26T19:11:12.005Z,93.05
2022-10-26T19:13:39.785Z,93.09
2022-10-26T19:16:16.961Z,92.92
2022-10-26T19:18:50.136Z,93.27
2022-10-26T19:21:20.162Z,93.03
2022-10-26T19:23:51.024Z,92.76
2022-10-26T19:26:20.355Z,93.24
2022-10-26T19:28:48.431Z,93.45
2022-10-26T19:31:16.171Z,93.12
2022-10-26T19:33:43.571Z,93.07
2022-10-26T19:36:12.704Z,93.46
2022-10-26T19:38:40.559Z,93.51
2022-10-26T19:41:11.636Z,94.00
2022-10-26T19:43:39.783Z,94.22
2022-10-26T19:46:10.178Z,94.82
2022-10-26T19:48:37.975Z,94.68
2022-10-26T19:51:05.796Z,94.73
2022-10-26T19:53:33.483Z,94.99
2022-10-26T19:56:02.121Z,94.94
2022-10-26T19:58:32.038Z,95.33
2022-10-26T20:01:00.598Z,95.54
2022-10-26T20:03:28.914Z,95.08
2022-10-26T20:05:57.629Z,95.67
2022-10-26T20:08:25.181Z,95.70
2022-10-26T20:10:54.655Z,96.61
2022-10-26T20:13:22.763Z,96.89
2022-10-26T20:15:52.926Z,96.95
2022-10-26T20:18:23.196Z,97.21
2022-10-26T20:20:50.741Z,97.09
2022-10-26T20:23:18.279Z,97.37
2022-10-26T20:25:47.428Z,97.79
2022-10-26T20:28:16.076Z,98.01
2022-10-26T20:30:45.274Z,97.89
2022-10-26T20:33:14.303Z,97.84
2022-10-26T20:35:42.812Z,98.90
2022-10-26T20:38:17.649Z,98.89
2022-10-26T20:40:46.496Z,99.01
2022-10-26T20:43:18.593Z,98.63
2022-10-26T20:45:47.415Z,98.84
2022-10-26T20:48:16.891Z,99.21
2022-10-26T20:50:53.662Z,99.43
2022-10-26T20:53:28.381Z,99.69
2022-10-26T20:55:58.621Z,99.55
2022-10-26T20:58:40.784Z,99.67
2022-10-26T21:01:16.169Z,99.95
2022-10-26T21:03:45.016Z,100.00
2022-10-26T21:06:12.746Z,100.00
2022-10-26T21:08:40.406Z,100.00
2022-10-26T21:11:07.839Z,100.00
2022-10-26T21:13:35.286Z,100.00
2022-10-26T21:16:04.735Z,100.00
2022-10-26T21:18:32.348Z,100.00
2022-10-26T21:21:01.807Z,100.00
2022-10-26T21:23:33.119Z,100.00
2022-10-26T21:26:00.874Z,100.00
2022-10-26T21:28:33.558Z,100.00
2022-10-26T21:31:02.755Z,100.00
2022-10-26T21:33:31.939Z,100.00
2022-10-26T21:36:00.754Z,100.00
2022-10-26T21:38:28.406Z,100.00
2022-10-26T21:41:04.495Z,100.00
2022-10-26T21:43:32.909Z,100.00
2022-10-26T21:46:03.537Z,100.00
2022-10-26T21:48:32.874Z,100.00
2022-10-26T21:51:04.156Z,100.00
2022-10-26T21:53:37.283Z,100.00
2022-10-26T21:56:07.740Z,100.00
2022-10-26T21:58:37.960Z,100.00
2022-10-26T22:01:06.819Z,100.00
2022-10-26T22:03:34.314Z,100.00
2022-10-26T22:06:03.554Z,100.00
2022-10-26T22:08:34.259Z,100.00
2022-10-26T22:11:07.826Z,100.00
2022-10-26T22:13:36.272Z,100.00
2022-10-26T22:16:14.439Z,100.00
2022-10-26T22:18:43.766Z,100.00
2022-10-26T22:21:13.312Z,100.00
2022-10-26T22:23:42.370Z,100.00
2022-10-26T22:26:12.488Z,100.00
2022-10-26T22:28:42.857Z,100.00
2022-10-26T22:31:12.699Z,100.00
2022-10-26T22:33:40.171Z,100.00
2022-10-26T22:36:10.122Z,100.00
2022-10-26T22:38:39.523Z,100.00
2022-10-26T22:41:07.334Z,100.00
2022-10-26T22:43:34.947Z,100.00
2022-10-26T22:46:03.344Z,100.00
2022-10-26T22:48:31.019Z,100.00
2022-10-26T22:50:58.561Z,100.00
2022-10-26T22:53:26.466Z,100.00
2022-10-26T22:55:55.313Z,100.00
2022-10-26T22:58:22.732Z,100.00
2022-10-26T23:00:50.527Z,100.00
2022-10-26T23:03:17.982Z,100.00
2022-10-26T23:05:46.880Z,100.00
2022-10-26T23:08:14.339Z,100.00
2022-10-26T23:10:41.847Z,100.00
2022-10-26T23:13:10.663Z,100.00
2022-10-26T23:15:38.075Z,100.00
2022-10-26T23:18:05.502Z,100.00
2022-10-26T23:20:33.415Z,100.00
2022-10-26T23:23:00.853Z,100.00
2022-10-26T23:25:28.546Z,100.00
2022-10-26T23:27:55.981Z,100.00
2022-10-26T23:30:24.732Z,100.00
2022-10-26T23:32:52.440Z,100.00
2022-10-26T23:35:20.010Z,100.00
2022-10-26T23:37:47.415Z,100.00
2022-10-26T23:40:14.872Z,100.00
2022-10-26T23:42:42.335Z,100.00
2022-10-26T23:45:10.420Z,100.00
2022-10-26T23:47:40.325Z,100.00
2022-10-26T23:50:08.684Z,100.00
2022-10-26T23:52:36.259Z,100.00
2022-10-26T23:55:03.714Z,100.00
2022-10-26T23:57:31.127Z,100.00
2022-10-26T23:59:58.533Z,100.00
